createdAt,value
2022-10-08T20:19:06.746Z,101076.34
2022-10-08T20:21:40.434Z,101073.28
2022-10-08T20:24:14.037Z,101065.13
2022-10-08T20:26:49.224Z,101064.09
2022-10-08T20:29:28.719Z,101063.75
2022-10-08T20:32:03.688Z,101066.28
2022-10-08T20:34:39.195Z,101064.06
2022-10-08T20:37:12.749Z,101073.28
2022-10-08T20:39:46.321Z,101068.34
2022-10-08T20:42:20.048Z,101064.72
2022-10-08T20:44:54.165Z,101060.31
2022-10-08T20:47:27.733Z,101051.13
2022-10-08T20:50:02.051Z,101055.22
2022-10-08T20:52:35.660Z,101056.88
2022-10-08T20:55:10.698Z,101054.41
2022-10-08T20:57:43.491Z,101061.03
2022-10-08T21:00:17.484Z,101059.06
2022-10-08T21:02:51.230Z,101062.31
2022-10-08T21:05:26.806Z,101062.03
2022-10-08T21:08:00.494Z,101065.09
2022-10-08T21:10:37.231Z,101059.34
2022-10-08T21:13:10.774Z,101060.34
2022-10-08T21:15:44.445Z,101054.22
2022-10-08T21:18:18.053Z,101062.41
2022-10-08T21:20:54.049Z,101054.22
2022-10-08T21:23:27.648Z,101053.50
2022-10-08T21:26:08.586Z,101058.44
2022-10-08T21:28:43.408Z,101044.50
2022-10-08T21:31:18.897Z,101049.25
2022-10-08T21:33:54.549Z,101042.28
2022-10-08T21:36:31.490Z,101042.31
2022-10-08T21:39:07.178Z,101037.38
2022-10-08T21:41:40.019Z,101046.72
2022-10-08T21:44:15.391Z,101040.94
2022-10-08T21:46:48.196Z,101040.56
2022-10-08T21:49:21.975Z,101036.00
2022-10-08T21:51:57.930Z,101036.88
2022-10-08T21:54:31.470Z,101035.84
2022-10-08T21:57:05.542Z,101032.78
2022-10-08T21:59:38.418Z,101025.13
2022-10-08T22:02:12.390Z,101025.44
2022-10-08T22:04:46.098Z,101026.97
2022-10-08T22:07:21.275Z,101020.53
2022-10-08T22:09:54.239Z,101016.75
2022-10-08T22:12:27.993Z,101011.63
2022-10-08T22:15:00.923Z,101010.94
2022-10-08T22:17:34.202Z,101005.50
2022-10-08T22:20:07.548Z,101005.81
2022-10-08T22:22:41.793Z,101006.97
2022-10-08T22:25:15.353Z,101012.22
2022-10-08T22:27:49.322Z,101011.84
2022-10-08T22:30:22.220Z,101000.09
2022-10-08T22:32:55.389Z,100999.22
2022-10-08T22:35:28.886Z,100994.97
2022-10-08T22:38:03.189Z,100986.63
2022-10-08T22:40:36.878Z,100987.94
2022-10-08T22:43:11.323Z,100985.94
2022-10-08T22:45:45.122Z,100978.63
2022-10-08T22:48:18.879Z,100975.31
2022-10-08T22:50:51.699Z,100979.69
2022-10-08T22:53:26.910Z,100971.03
2022-10-08T22:56:00.539Z,100968.16
2022-10-08T22:58:34.223Z,100967.31
2022-10-08T23:01:09.647Z,100962.88
2022-10-08T23:03:42.838Z,100955.75
2022-10-08T23:06:19.171Z,100959.31
2022-10-08T23:08:56.953Z,100957.63
2022-10-08T23:11:31.756Z,100950.16
2022-10-08T23:14:04.775Z,100944.75
2022-10-08T23:16:37.648Z,100936.38
2022-10-08T23:19:12.750Z,100932.81
2022-10-08T23:21:45.642Z,100929.63
2022-10-08T23:24:20.990Z,100930.63
2022-10-08T23:26:54.543Z,100923.66
2022-10-08T23:29:27.894Z,100913.34
2022-10-08T23:32:00.959Z,100914.88
2022-10-08T23:34:34.750Z,100912.81
2022-10-08T23:37:08.438Z,100914.66
2022-10-08T23:39:42.799Z,100907.38
2022-10-08T23:42:15.720Z,100898.91
2022-10-08T23:44:49.656Z,100896.56
2022-10-08T23:47:23.601Z,100888.44
2022-10-08T23:49:56.605Z,100889.13
2022-10-08T23:52:29.486Z,100883.88
2022-10-08T23:55:03.714Z,100876.75
2022-10-08T23:57:36.571Z,100881.03
